createdAt,value
2019-02-21T22:20:30.518Z,58.50
2019-02-21T22:22:58.936Z,58.50
2019-02-21T22:25:27.317Z,58.50
2019-02-21T22:27:55.719Z,58.50
2019-02-21T22:30:24.052Z,58.60
2019-02-21T22:32:52.371Z,58.70
2019-02-21T22:35:20.743Z,58.80
2019-02-21T22:37:49.071Z,59.10
2019-02-21T22:40:20.107Z,59.00
2019-02-21T22:42:48.511Z,58.80
2019-02-21T22:45:16.924Z,58.70
2019-02-21T22:47:45.259Z,58.50
2019-02-21T22:52:23.087Z,58.50
2019-02-21T22:54:52.311Z,59.20
2019-02-21T22:57:21.551Z,58.90
2019-02-21T22:59:50.771Z,59.10
2019-02-21T23:02:26.607Z,59.40
2019-02-21T23:04:59.216Z,59.40
2019-02-21T23:07:31.687Z,59.60
2019-02-21T23:10:00.984Z,59.80
2019-02-21T23:12:31.861Z,59.80
2019-02-21T23:15:01.071Z,59.90
2019-02-21T23:17:30.467Z,60.30
2019-02-21T23:19:59.693Z,60.40
2019-02-21T23:22:28.912Z,60.20
2019-02-21T23:24:58.195Z,60.20
2019-02-21T23:27:28.987Z,60.20
2019-02-21T23:29:58.335Z,60.30
2019-02-21T23:32:27.583Z,60.40
2019-02-21T23:34:57.713Z,60.20
2019-02-21T23:37:26.924Z,60.60
2019-02-21T23:39:57.652Z,61.00
2019-02-21T23:42:26.865Z,60.50
2019-02-21T23:44:56.068Z,60.30
2019-02-21T23:47:25.308Z,61.00
2019-02-21T23:49:54.612Z,60.40
2019-02-21T23:52:23.903Z,60.40
2019-02-21T23:54:53.138Z,60.40
2019-02-21T23:57:22.404Z,60.50
2019-02-21T23:59:52.420Z,60.50
